PWSweather.com
Personal Weather Stations
Station Observations
ZL1DX1M
Mt. Roskill, Auckland, AK 1041

Mt. RoskillAuckland, AK 1041

Lat: -36.9, Lon: 174.74

Elevation: 54

Station Type:

http://www.sanctuaryweather.co.nz

Latest ConditionsUpdated 6:30:10 PM GMT+12 Friday, Apr 25, 2014
Currently Today's Max Today's Min Today's Average
Temperature 64.1°F17.8°C 71.4°F21.9°C 57.6°F14.2°C 63.2°F17.3°C
Dew Point 59.5°F15.3°C 63.1°F17.3°C 56.5°F13.6°C 59.5°F15.3°C
Winds 1.0 mph W1.6 kmh W 7.9 mph W12.7 kmh W - 2.1 mph 3.4 kmh
Wind Gusts 2.0 mph3.2 kmh 14.0 mph22.5 kmh - -
Humidity 85% 97% 68% 89%
Pressure 30.09 in1019.0 mb 30.17 in1021.7 mb 30.09 in1019.0 mb -
Precipitation - 0.01 in0.3 mm - -
Hour Temp Dew Point Humidity Winds Wind Gusts Pressure Precip Precip Rate Daily Precip Total
06:30 PM 64.1°F17.8°C 59.5°F15.3°C 85% 1.0 mph W1.6 kmh W 2.0 mph3.2 kmh 30.09 in1019.0 mb 0.00 in0.0 mm 0.00 in/hr0.0 mm/hr 0.01 in0.3 mm
06:15 PM 64.5°F18.1°C 59.6°F15.3°C 84% 2.0 mph W3.2 kmh W 3.0 mph4.8 kmh 30.09 in1019.0 mb 0.00 in0.0 mm 0.00 in/hr0.0 mm/hr 0.01 in0.3 mm
06:00 PM 64.6°F18.1°C 59.7°F15.4°C 84% 3.0 mph W4.8 kmh W 9.0 mph14.5 kmh 30.09 in1019.0 mb 0.00 in0.0 mm 0.00 in/hr0.0 mm/hr 0.01 in0.3 mm
05:45 PM 65.0°F18.3°C 59.7°F15.4°C 83% 1.0 mph WSW1.6 kmh WSW 5.0 mph8.0 kmh 30.09 in1019.0 mb 0.00 in0.0 mm 0.00 in/hr0.0 mm/hr 0.01 in0.3 mm
05:30 PM 65.6°F18.7°C 59.6°F15.3°C 81% 2.0 mph SW3.2 kmh SW 3.0 mph4.8 kmh 30.09 in1019.0 mb 0.00 in0.0 mm 0.00 in/hr0.0 mm/hr 0.01 in0.3 mm
05:15 PM 66.4°F19.1°C 60.0°F15.6°C 80% 5.0 mph W8.0 kmh W 7.0 mph11.3 kmh 30.09 in1019.0 mb 0.00 in0.0 mm 0.00 in/hr0.0 mm/hr 0.01 in0.3 mm
05:00 PM 67.3°F19.6°C 60.2°F15.7°C 78% 3.0 mph W4.8 kmh W 6.0 mph9.7 kmh 30.09 in1019.0 mb 0.00 in0.0 mm 0.00 in/hr0.0 mm/hr 0.01 in0.3 mm
04:45 PM 68.1°F20.1°C 60.3°F15.7°C 76% 6.0 mph SW9.7 kmh SW 8.0 mph12.9 kmh 30.09 in1019.0 mb 0.00 in0.0 mm 0.00 in/hr0.0 mm/hr 0.01 in0.3 mm
04:15 PM 68.6°F20.3°C 60.0°F15.6°C 74% 6.7 mph NE10.8 kmh NE 12.0 mph19.3 kmh 30.09 in1019.0 mb 0.00 in0.0 mm 0.00 in/hr0.0 mm/hr 0.01 in0.3 mm
04:00 PM 68.3°F20.2°C 60.1°F15.6°C 75% 4.4 mph SW7.1 kmh SW 9.0 mph14.5 kmh 30.09 in1019.0 mb 0.00 in0.0 mm 0.00 in/hr0.0 mm/hr 0.01 in0.3 mm
03:45 PM 68.6°F20.3°C 60.3°F15.7°C 75% 4.5 mph WSW7.2 kmh WSW 10.0 mph16.1 kmh 30.09 in1019.0 mb 0.00 in0.0 mm 0.00 in/hr0.0 mm/hr 0.01 in0.3 mm
03:30 PM 70.0°F21.1°C 60.2°F15.7°C 71% 4.0 mph SW6.4 kmh SW 7.0 mph11.3 kmh 30.09 in1019.0 mb 0.00 in0.0 mm 0.00 in/hr0.0 mm/hr 0.01 in0.3 mm
03:15 PM 69.9°F21.1°C 60.5°F15.8°C 72% 5.5 mph SW8.9 kmh SW 13.0 mph20.9 kmh 30.09 in1019.0 mb 0.00 in0.0 mm 0.00 in/hr0.0 mm/hr 0.01 in0.3 mm
03:00 PM 69.2°F20.7°C 59.8°F15.4°C 72% 6.9 mph W11.1 kmh W 8.0 mph12.9 kmh 30.09 in1019.0 mb 0.00 in0.0 mm 0.00 in/hr0.0 mm/hr 0.01 in0.3 mm
02:45 PM 71.1°F21.7°C 60.4°F15.8°C 69% 4.3 mph SW6.9 kmh SW 14.0 mph22.5 kmh 30.09 in1019.0 mb 0.00 in0.0 mm 0.00 in/hr0.0 mm/hr 0.01 in0.3 mm
02:30 PM 71.4°F21.9°C 60.3°F15.7°C 68% 4.7 mph W7.6 kmh W 14.0 mph22.5 kmh 30.09 in1019.0 mb 0.00 in0.0 mm 0.00 in/hr0.0 mm/hr 0.01 in0.3 mm
02:15 PM 71.2°F21.8°C 60.9°F16.1°C 70% 4.0 mph SW6.4 kmh SW 7.0 mph11.3 kmh 30.10 in1019.3 mb 0.00 in0.0 mm 0.00 in/hr0.0 mm/hr 0.01 in0.3 mm
01:45 PM 70.4°F21.3°C 60.9°F16.1°C 72% 6.9 mph WSW11.1 kmh WSW 12.0 mph19.3 kmh 30.10 in1019.3 mb 0.00 in0.0 mm 0.00 in/hr0.0 mm/hr 0.01 in0.3 mm
01:30 PM 70.3°F21.3°C 60.1°F15.6°C 70% 7.6 mph WSW12.2 kmh WSW 14.0 mph22.5 kmh 30.11 in1019.6 mb 0.00 in0.0 mm 0.00 in/hr0.0 mm/hr 0.01 in0.3 mm
01:15 PM 69.3°F20.7°C 60.6°F15.9°C 74% 5.6 mph WSW9.0 kmh WSW 10.0 mph16.1 kmh 30.11 in1019.6 mb 0.00 in0.0 mm 0.00 in/hr0.0 mm/hr 0.01 in0.3 mm
01:00 PM 68.9°F20.5°C 60.3°F15.7°C 74% 4.8 mph WNW7.7 kmh WNW 10.0 mph16.1 kmh 30.12 in1020.0 mb 0.00 in0.0 mm 0.00 in/hr0.0 mm/hr 0.01 in0.3 mm
12:45 PM 69.6°F20.9°C 60.2°F15.7°C 72% 5.5 mph WNW8.9 kmh WNW 11.0 mph17.7 kmh 30.13 in1020.3 mb 0.00 in0.0 mm 0.00 in/hr0.0 mm/hr 0.01 in0.3 mm
12:30 PM 69.3°F20.7°C 60.3°F15.7°C 73% 6.1 mph WSW9.8 kmh WSW 11.0 mph17.7 kmh 30.13 in1020.3 mb 0.00 in0.0 mm 0.00 in/hr0.0 mm/hr 0.01 in0.3 mm
12:15 PM 68.6°F20.3°C 61.1°F16.2°C 77% 7.9 mph W12.7 kmh W 14.0 mph22.5 kmh 30.14 in1020.7 mb 0.00 in0.0 mm 0.00 in/hr0.0 mm/hr 0.01 in0.3 mm
12:00 PM 66.3°F19.1°C 62.0°F16.7°C 86% 2.1 mph WNW3.4 kmh WNW 4.0 mph6.4 kmh 30.15 in1021.0 mb 0.00 in0.0 mm 0.00 in/hr0.0 mm/hr 0.01 in0.3 mm
11:45 AM 66.4°F19.1°C 61.7°F16.5°C 85% 4.4 mph WSW7.1 kmh WSW 8.0 mph12.9 kmh 30.15 in1021.0 mb 0.00 in0.0 mm 0.00 in/hr0.0 mm/hr 0.01 in0.3 mm
11:30 AM 66.1°F18.9°C 62.5°F16.9°C 88% 2.7 mph SW4.3 kmh SW 7.0 mph11.3 kmh 30.15 in1021.0 mb 0.00 in0.0 mm 0.00 in/hr0.0 mm/hr 0.01 in0.3 mm
11:15 AM 65.2°F18.4°C 62.2°F16.8°C 90% 1.3 mph WSW2.1 kmh WSW 2.0 mph3.2 kmh 30.16 in1021.3 mb 0.00 in0.0 mm 0.00 in/hr0.0 mm/hr 0.01 in0.3 mm
11:00 AM 64.3°F17.9°C 62.3°F16.8°C 93% 3.0 mph WSW4.8 kmh WSW 7.0 mph11.3 kmh 30.16 in1021.3 mb 0.00 in0.0 mm 0.00 in/hr0.0 mm/hr 0.01 in0.3 mm
10:45 AM 64.1°F17.8°C 62.3°F16.8°C 94% 1.2 mph W1.9 kmh W 5.0 mph8.0 kmh 30.16 in1021.3 mb 0.00 in0.0 mm 0.00 in/hr0.0 mm/hr 0.01 in0.3 mm
10:30 AM 64.2°F17.9°C 62.7°F17.1°C 95% 1.8 mph SW2.9 kmh SW 5.0 mph8.0 kmh 30.16 in1021.3 mb 0.00 in0.0 mm 0.00 in/hr0.0 mm/hr 0.01 in0.3 mm
10:15 AM 64.2°F17.9°C 63.1°F17.3°C 96% 0.7 mph WNW1.1 kmh WNW 3.0 mph4.8 kmh 30.16 in1021.3 mb 0.00 in0.0 mm 0.00 in/hr0.0 mm/hr 0.01 in0.3 mm
10:00 AM 63.8°F17.7°C 62.6°F17.0°C 96% 1.4 mph WSW2.3 kmh WSW 3.0 mph4.8 kmh 30.16 in1021.3 mb 0.00 in0.0 mm 0.00 in/hr0.0 mm/hr 0.01 in0.3 mm
09:45 AM 63.2°F17.3°C 62.3°F16.8°C 97% 1.8 mph W2.9 kmh W 7.0 mph11.3 kmh 30.17 in1021.7 mb 0.01 in0.3 mm 0.04 in/hr1.0 mm/hr 0.01 in0.3 mm
09:30 AM 62.6°F17.0°C 61.7°F16.5°C 97% 1.6 mph W2.6 kmh W 4.0 mph6.4 kmh 30.17 in1021.7 mb 0.00 in0.0 mm 0.00 in/hr0.0 mm/hr 0.00 in0.0 mm
09:15 AM 62.4°F16.9°C 61.5°F16.4°C 97% 2.9 mph W4.7 kmh W 5.0 mph8.0 kmh 30.16 in1021.3 mb 0.00 in0.0 mm 0.00 in/hr0.0 mm/hr 0.00 in0.0 mm
09:00 AM 61.6°F16.4°C 60.7°F15.9°C 97% 1.3 mph W2.1 kmh W 3.0 mph4.8 kmh 30.16 in1021.3 mb 0.00 in0.0 mm 0.00 in/hr0.0 mm/hr 0.00 in0.0 mm
08:45 AM 61.1°F16.2°C 60.3°F15.7°C 97% Calm Calm -- 30.16 in1021.3 mb 0.00 in0.0 mm 0.00 in/hr0.0 mm/hr 0.00 in0.0 mm
08:30 AM 60.9°F16.1°C 60.0°F15.6°C 97% 0.4 mph NW0.6 kmh NW 2.0 mph3.2 kmh 30.16 in1021.3 mb 0.00 in0.0 mm 0.00 in/hr0.0 mm/hr 0.00 in0.0 mm
08:15 AM 60.4°F15.8°C 59.5°F15.3°C 97% 1.3 mph WNW2.1 kmh WNW 3.0 mph4.8 kmh 30.15 in1021.0 mb 0.00 in0.0 mm 0.00 in/hr0.0 mm/hr 0.00 in0.0 mm
07:15 AM 59.5°F15.3°C 58.6°F14.8°C 97% 0.2 mph WNW0.3 kmh WNW 1.0 mph1.6 kmh 30.14 in1020.7 mb 0.00 in0.0 mm 0.00 in/hr0.0 mm/hr 0.00 in0.0 mm
07:00 AM 59.3°F15.2°C 58.4°F14.7°C 97% Calm Calm -- 30.13 in1020.3 mb 0.00 in0.0 mm 0.00 in/hr0.0 mm/hr 0.00 in0.0 mm
06:45 AM 59.5°F15.3°C 58.6°F14.8°C 97% 0.1 mph W0.2 kmh W -- 30.13 in1020.3 mb 0.00 in0.0 mm 0.00 in/hr0.0 mm/hr 0.00 in0.0 mm
06:30 AM 59.3°F15.2°C 58.5°F14.7°C 97% Calm Calm 2.0 mph3.2 kmh 30.13 in1020.3 mb 0.00 in0.0 mm 0.00 in/hr0.0 mm/hr 0.00 in0.0 mm
06:15 AM 59.5°F15.3°C 58.6°F14.8°C 97% 0.7 mph W1.1 kmh W 1.0 mph1.6 kmh 30.13 in1020.3 mb 0.00 in0.0 mm 0.00 in/hr0.0 mm/hr 0.00 in0.0 mm
06:00 AM 59.2°F15.1°C 58.3°F14.6°C 97% 0.3 mph W0.5 kmh W 1.0 mph1.6 kmh 30.13 in1020.3 mb 0.00 in0.0 mm 0.00 in/hr0.0 mm/hr 0.00 in0.0 mm
05:45 AM 59.0°F15.0°C 58.2°F14.6°C 97% 0.2 mph WNW0.3 kmh WNW 1.0 mph1.6 kmh 30.13 in1020.3 mb 0.00 in0.0 mm 0.00 in/hr0.0 mm/hr 0.00 in0.0 mm
05:30 AM 59.0°F15.0°C 58.2°F14.6°C 97% 0.1 mph W0.2 kmh W -- 30.13 in1020.3 mb 0.00 in0.0 mm 0.00 in/hr0.0 mm/hr 0.00 in0.0 mm
05:15 AM 58.9°F14.9°C 58.1°F14.5°C 97% Calm Calm -- 30.13 in1020.3 mb 0.00 in0.0 mm 0.00 in/hr0.0 mm/hr 0.00 in0.0 mm
05:00 AM 59.0°F15.0°C 58.2°F14.6°C 97% Calm Calm -- 30.14 in1020.7 mb 0.00 in0.0 mm 0.00 in/hr0.0 mm/hr 0.00 in0.0 mm
04:45 AM 59.0°F15.0°C 58.2°F14.6°C 97% Calm Calm -- 30.14 in1020.7 mb 0.00 in0.0 mm 0.00 in/hr0.0 mm/hr 0.00 in0.0 mm
04:30 AM 58.9°F14.9°C 58.1°F14.5°C 97% Calm Calm -- 30.14 in1020.7 mb 0.00 in0.0 mm 0.00 in/hr0.0 mm/hr 0.00 in0.0 mm
04:15 AM 58.7°F14.8°C 57.9°F14.4°C 97% Calm Calm -- 30.14 in1020.7 mb 0.00 in0.0 mm 0.00 in/hr0.0 mm/hr 0.00 in0.0 mm
04:00 AM 58.2°F14.6°C 57.4°F14.1°C 97% Calm Calm -- 30.14 in1020.7 mb 0.00 in0.0 mm 0.00 in/hr0.0 mm/hr 0.00 in0.0 mm
03:45 AM 58.2°F14.6°C 57.4°F14.1°C 97% Calm Calm -- 30.14 in1020.7 mb 0.00 in0.0 mm 0.00 in/hr0.0 mm/hr 0.00 in0.0 mm
03:30 AM 58.0°F14.4°C 57.2°F14.0°C 97% Calm Calm -- 30.14 in1020.7 mb 0.00 in0.0 mm 0.00 in/hr0.0 mm/hr 0.00 in0.0 mm
03:15 AM 57.6°F14.2°C 56.5°F13.6°C 96% Calm Calm -- 30.15 in1021.0 mb 0.00 in0.0 mm 0.00 in/hr0.0 mm/hr 0.00 in0.0 mm
03:00 AM 58.3°F14.6°C 57.2°F14.0°C 96% Calm Calm -- 30.15 in1021.0 mb 0.00 in0.0 mm 0.00 in/hr0.0 mm/hr 0.00 in0.0 mm
02:45 AM 58.8°F14.9°C 57.7°F14.3°C 96% Calm Calm -- 30.15 in1021.0 mb 0.00 in0.0 mm 0.00 in/hr0.0 mm/hr 0.00 in0.0 mm
02:30 AM 59.5°F15.3°C 58.6°F14.8°C 97% 0.1 mph WSW0.2 kmh WSW 1.0 mph1.6 kmh 30.16 in1021.3 mb 0.00 in0.0 mm 0.00 in/hr0.0 mm/hr 0.00 in0.0 mm
02:15 AM 59.2°F15.1°C 58.1°F14.5°C 96% 0.2 mph WSW0.3 kmh WSW 1.0 mph1.6 kmh 30.16 in1021.3 mb 0.00 in0.0 mm 0.00 in/hr0.0 mm/hr 0.00 in0.0 mm
02:00 AM 59.2°F15.1°C 58.0°F14.4°C 96% 0.4 mph WSW0.6 kmh WSW 1.0 mph1.6 kmh 30.16 in1021.3 mb 0.00 in0.0 mm 0.00 in/hr0.0 mm/hr 0.00 in0.0 mm
01:45 AM 59.2°F15.1°C 58.1°F14.5°C 96% 0.7 mph WSW1.1 kmh WSW 2.0 mph3.2 kmh 30.16 in1021.3 mb 0.00 in0.0 mm 0.00 in/hr0.0 mm/hr 0.00 in0.0 mm
01:30 AM 58.9°F14.9°C 58.1°F14.5°C 97% 0.3 mph SW0.5 kmh SW 2.0 mph3.2 kmh 30.16 in1021.3 mb 0.00 in0.0 mm 0.00 in/hr0.0 mm/hr 0.00 in0.0 mm
01:15 AM 57.8°F14.3°C 56.7°F13.7°C 96% 0.1 mph WSW0.2 kmh WSW 3.0 mph4.8 kmh 30.16 in1021.3 mb 0.00 in0.0 mm 0.00 in/hr0.0 mm/hr 0.00 in0.0 mm
01:00 AM 57.8°F14.3°C 56.7°F13.7°C 96% Calm Calm -- 30.16 in1021.3 mb 0.00 in0.0 mm 0.00 in/hr0.0 mm/hr 0.00 in0.0 mm
12:45 AM 58.4°F14.7°C 57.0°F13.9°C 95% Calm Calm -- 30.16 in1021.3 mb 0.00 in0.0 mm 0.00 in/hr0.0 mm/hr 0.00 in0.0 mm
12:30 AM 59.1°F15.1°C 58.0°F14.4°C 96% Calm Calm -- 30.15 in1021.0 mb 0.00 in0.0 mm 0.00 in/hr0.0 mm/hr 0.00 in0.0 mm
12:15 AM 58.8°F14.9°C 57.7°F14.3°C 96% 0.3 mph W0.5 kmh W 1.0 mph1.6 kmh 30.15 in1021.0 mb 0.00 in0.0 mm 0.00 in/hr0.0 mm/hr 0.00 in0.0 mm
12:00 AM 58.3°F14.6°C 57.2°F14.0°C 96% Calm Calm -- 30.15 in1021.0 mb 0.00 in0.0 mm 0.00 in/hr0.0 mm/hr 0.00 in0.0 mm